SKN203 LEVC-LEMG
Flight info
| Callsign | SKN203 |
|---|---|
| Flight time | N/A |
| Altitude | 20000 |
| Route | ASTR6G ASTRO M985 VIBAS VIBA2A |
| Aircraft | A320/M-SDFGHIRWY/L |
Departure
| Time | 2026-04-27 16:01 |
|---|---|
| Airport | Valencia Airport (LEVC) |
Arrival
| Time | N/A |
|---|---|
| Airport | Málaga-Costa del Sol Airport (LEMG) |
| Time | Latitude | Longitude | Altitude | Speed | Heading |
|---|---|---|---|---|---|
| 2026-04-27 15:36 | 39.48970 | -0.47584 | 206 ft | 0 kts | 206° |
| 2026-04-27 15:53 | 39.48976 | -0.47581 | 206 ft | 3 kts | 206° |
| 2026-04-27 15:53 | 39.48990 | -0.47572 | 217 ft | 4 kts | 205° |
| 2026-04-27 15:53 | 39.49016 | -0.47533 | 209 ft | 6 kts | 256° |
| 2026-04-27 15:54 | 39.49017 | -0.47522 | 210 ft | 1 kts | 268° |
| 2026-04-27 15:54 | 39.49018 | -0.47536 | 208 ft | 10 kts | 276° |
| 2026-04-27 15:54 | 39.49036 | -0.47586 | 208 ft | 4 kts | 296° |
| 2026-04-27 15:54 | 39.49053 | -0.47627 | 208 ft | 6 kts | 291° |
| 2026-04-27 15:55 | 39.49059 | -0.47683 | 212 ft | 6 kts | 269° |
| 2026-04-27 15:55 | 39.49052 | -0.47714 | 208 ft | 5 kts | 252° |
| 2026-04-27 15:55 | 39.49035 | -0.47837 | 211 ft | 18 kts | 262° |
| 2026-04-27 15:55 | 39.49068 | -0.47991 | 217 ft | 18 kts | 294° |
| 2026-04-27 15:56 | 39.49125 | -0.48143 | 216 ft | 19 kts | 297° |
| 2026-04-27 15:56 | 39.49177 | -0.48285 | 219 ft | 17 kts | 297° |
| 2026-04-27 15:56 | 39.49231 | -0.48419 | 223 ft | 17 kts | 297° |
| 2026-04-27 15:56 | 39.49281 | -0.48546 | 224 ft | 15 kts | 297° |
| 2026-04-27 15:57 | 39.49328 | -0.48659 | 228 ft | 14 kts | 294° |
| 2026-04-27 15:57 | 39.49369 | -0.48775 | 229 ft | 15 kts | 295° |
| 2026-04-27 15:57 | 39.49412 | -0.48893 | 231 ft | 14 kts | 295° |
| 2026-04-27 15:57 | 39.49454 | -0.49011 | 230 ft | 15 kts | 295° |
| 2026-04-27 15:58 | 39.49499 | -0.49140 | 233 ft | 16 kts | 294° |
| 2026-04-27 15:58 | 39.49542 | -0.49253 | 234 ft | 10 kts | 302° |
| 2026-04-27 15:58 | 39.49546 | -0.49262 | 236 ft | 1 kts | 299° |
| 2026-04-27 15:58 | 39.49549 | -0.49272 | 235 ft | 2 kts | 288° |
| 2026-04-27 15:59 | 39.49550 | -0.49289 | 235 ft | 2 kts | 268° |
| 2026-04-27 15:59 | 39.49545 | -0.49310 | 235 ft | 3 kts | 243° |
| 2026-04-27 15:59 | 39.49530 | -0.49329 | 236 ft | 3 kts | 214° |
| 2026-04-27 15:59 | 39.49504 | -0.49337 | 236 ft | 5 kts | 177° |
| 2026-04-27 16:00 | 39.49473 | -0.49310 | 235 ft | 7 kts | 125° |
| 2026-04-27 16:00 | 39.49445 | -0.49276 | 234 ft | 10 kts | 145° |
| 2026-04-27 16:00 | 39.49310 | -0.49136 | 234 ft | 44 kts | 123° |
| 2026-04-27 16:00 | 39.49080 | -0.48571 | 218 ft | 106 kts | 116° |
| 2026-04-27 16:01 | 39.48593 | -0.47313 | 327 ft | 193 kts | 116° |
| 2026-04-27 16:01 | 39.47926 | -0.45627 | 1078 ft | 229 kts | 117° |
| 2026-04-27 16:01 | 39.47077 | -0.43702 | 1908 ft | 262 kts | 123° |
| 2026-04-27 16:01 | 39.46070 | -0.41873 | 2722 ft | 226 kts | 126° |
| 2026-04-27 16:02 | 39.45219 | -0.40458 | 3490 ft | 175 kts | 127° |
| 2026-04-27 16:02 | 39.44487 | -0.39296 | 4280 ft | 160 kts | 128° |
| 2026-04-27 16:02 | 39.43799 | -0.38212 | 4973 ft | 159 kts | 128° |
| 2026-04-27 16:02 | 39.43074 | -0.37052 | 5468 ft | 167 kts | 128° |
| 2026-04-27 16:03 | 39.42334 | -0.35851 | 5976 ft | 176 kts | 128° |
| 2026-04-27 16:03 | 39.41561 | -0.34583 | 6410 ft | 190 kts | 128° |
| 2026-04-27 16:03 | 39.40650 | -0.33070 | 6837 ft | 236 kts | 127° |
| 2026-04-27 16:03 | 39.39595 | -0.31203 | 7228 ft | 278 kts | 125° |
| 2026-04-27 16:04 | 39.38236 | -0.29214 | 7607 ft | 305 kts | 143° |
| 2026-04-27 16:04 | 39.36305 | -0.28230 | 7972 ft | 296 kts | 173° |
| 2026-04-27 16:04 | 39.34329 | -0.28668 | 8328 ft | 290 kts | 204° |
| 2026-04-27 16:04 | 39.32853 | -0.30383 | 8708 ft | 287 kts | 237° |
| 2026-04-27 16:05 | 39.32242 | -0.32809 | 9089 ft | 283 kts | 258° |
| 2026-04-27 16:05 | 39.31918 | -0.35293 | 9465 ft | 277 kts | 258° |
| 2026-04-27 16:05 | 39.31537 | -0.37694 | 9845 ft | 271 kts | 255° |
| 2026-04-27 16:05 | 39.31121 | -0.40033 | 10208 ft | 266 kts | 255° |
| 2026-04-27 16:06 | 39.30743 | -0.42332 | 10557 ft | 263 kts | 257° |
| 2026-04-27 16:06 | 39.30448 | -0.44677 | 10917 ft | 260 kts | 261° |
| 2026-04-27 16:06 | 39.30280 | -0.46978 | 11276 ft | 265 kts | 265° |
| 2026-04-27 16:06 | 39.30256 | -0.49402 | 11653 ft | 275 kts | 270° |
| 2026-04-27 16:07 | 39.30419 | -0.51897 | 12035 ft | 283 kts | 276° |
| 2026-04-27 16:07 | 39.30804 | -0.54428 | 12418 ft | 291 kts | 283° |
| 2026-04-27 16:07 | 39.31425 | -0.56946 | 12805 ft | 298 kts | 290° |
| 2026-04-27 16:07 | 39.32289 | -0.59420 | 13198 ft | 305 kts | 296° |
| 2026-04-27 16:08 | 39.33384 | -0.61770 | 13712 ft | 306 kts | 303° |
| 2026-04-27 16:08 | 39.34683 | -0.63947 | 14248 ft | 305 kts | 310° |
| 2026-04-27 16:08 | 39.36150 | -0.65867 | 15138 ft | 297 kts | 317° |
| 2026-04-27 16:08 | 39.37440 | -0.67865 | 16513 ft | 285 kts | 293° |
| 2026-04-27 16:09 | 39.37774 | -0.70274 | 17994 ft | 267 kts | 259° |
| 2026-04-27 16:09 | 39.35643 | -0.73891 | 19754 ft | 275 kts | 211° |
| 2026-04-27 16:09 | 39.33950 | -0.75300 | 20060 ft | 305 kts | 215° |
| 2026-04-27 16:10 | 39.30478 | -0.79449 | 20111 ft | 374 kts | 227° |
| 2026-04-27 16:10 | 39.26941 | -0.84886 | 20100 ft | 403 kts | 230° |
| 2026-04-27 16:11 | 39.25235 | -0.87677 | 20090 ft | 390 kts | 231° |
| 2026-04-27 16:11 | 39.22039 | -0.93030 | 20096 ft | 371 kts | 232° |
| 2026-04-27 16:12 | 39.18934 | -0.98273 | 20094 ft | 365 kts | 232° |
| 2026-04-27 16:12 | 39.17394 | -1.00873 | 20102 ft | 363 kts | 232° |
| 2026-04-27 16:12 | 39.14346 | -1.06011 | 20100 ft | 359 kts | 232° |
| 2026-04-27 16:13 | 39.12831 | -1.08561 | 20092 ft | 358 kts | 232° |
| 2026-04-27 16:13 | 39.09812 | -1.13636 | 20099 ft | 356 kts | 232° |
| 2026-04-27 16:13 | 39.08308 | -1.16159 | 20092 ft | 355 kts | 232° |
| 2026-04-27 16:14 | 39.05294 | -1.21208 | 20090 ft | 354 kts | 232° |
| 2026-04-27 16:14 | 39.02306 | -1.26196 | 20089 ft | 354 kts | 232° |
| 2026-04-27 16:15 | 38.99269 | -1.31166 | 20086 ft | 353 kts | 231° |
| 2026-04-27 16:15 | 38.96237 | -1.36134 | 20091 ft | 353 kts | 232° |
| 2026-04-27 16:16 | 38.93218 | -1.41122 | 20090 ft | 353 kts | 232° |
| 2026-04-27 16:16 | 38.90215 | -1.46106 | 20087 ft | 353 kts | 232° |
| 2026-04-27 16:17 | 38.87208 | -1.51098 | 20088 ft | 353 kts | 232° |
| 2026-04-27 16:17 | 38.84226 | -1.56041 | 20084 ft | 353 kts | 232° |
| 2026-04-27 16:18 | 38.81202 | -1.61044 | 20085 ft | 353 kts | 232° |
| 2026-04-27 16:18 | 38.78211 | -1.65983 | 20088 ft | 353 kts | 232° |
| 2026-04-27 16:19 | 38.77196 | -1.67657 | 20088 ft | 353 kts | 232° |
| 2026-04-27 16:19 | 38.75197 | -1.70952 | 20083 ft | 353 kts | 232° |
| 2026-04-27 16:20 | 38.70669 | -1.78405 | 20082 ft | 353 kts | 232° |
| 2026-04-27 16:20 | 38.69649 | -1.80081 | 20082 ft | 353 kts | 232° |
| 2026-04-27 16:20 | 38.66645 | -1.85009 | 20087 ft | 354 kts | 232° |
| 2026-04-27 16:21 | 38.65129 | -1.87494 | 20088 ft | 354 kts | 232° |
| 2026-04-27 16:21 | 38.60581 | -1.94935 | 20090 ft | 354 kts | 232° |
| 2026-04-27 16:22 | 38.59066 | -1.97411 | 20085 ft | 354 kts | 232° |
| 2026-04-27 16:22 | 38.56023 | -2.02378 | 20086 ft | 354 kts | 232° |
| 2026-04-27 16:22 | 38.54505 | -2.04852 | 20082 ft | 354 kts | 232° |
| 2026-04-27 16:23 | 38.52978 | -2.07339 | 20091 ft | 354 kts | 232° |
| 2026-04-27 16:23 | 38.49955 | -2.12258 | 20088 ft | 355 kts | 232° |
| 2026-04-27 16:23 | 38.48432 | -2.14734 | 20096 ft | 355 kts | 232° |
| 2026-04-27 16:24 | 38.46904 | -2.17217 | 20082 ft | 355 kts | 232° |
| 2026-04-27 16:24 | 38.43851 | -2.22173 | 20097 ft | 355 kts | 232° |
| 2026-04-27 16:25 | 38.40790 | -2.27134 | 20091 ft | 355 kts | 232° |
| 2026-04-27 16:25 | 38.37731 | -2.32085 | 20083 ft | 355 kts | 232° |
| 2026-04-27 16:26 | 38.34586 | -2.36944 | 20082 ft | 356 kts | 229° |
| 2026-04-27 16:26 | 38.31243 | -2.41601 | 20078 ft | 356 kts | 227° |
| 2026-04-27 16:27 | 38.27826 | -2.46183 | 20080 ft | 357 kts | 227° |
| 2026-04-27 16:27 | 38.22706 | -2.53006 | 20071 ft | 357 kts | 227° |
| 2026-04-27 16:28 | 38.19280 | -2.57582 | 20071 ft | 357 kts | 227° |
| 2026-04-27 16:28 | 38.15859 | -2.62153 | 20067 ft | 357 kts | 227° |
| 2026-04-27 16:29 | 38.10712 | -2.69024 | 20061 ft | 357 kts | 226° |
| 2026-04-27 16:30 | 38.07277 | -2.73599 | 20059 ft | 357 kts | 226° |
| 2026-04-27 16:30 | 38.03843 | -2.78166 | 20052 ft | 358 kts | 226° |
| 2026-04-27 16:31 | 37.98700 | -2.84992 | 20042 ft | 358 kts | 226° |
| 2026-04-27 16:31 | 37.95259 | -2.89552 | 20031 ft | 358 kts | 226° |
| 2026-04-27 16:32 | 37.91812 | -2.94111 | 20025 ft | 358 kts | 226° |
| 2026-04-27 16:32 | 37.90081 | -2.96397 | 20023 ft | 358 kts | 226° |
| 2026-04-27 16:33 | 37.86608 | -3.00981 | 20024 ft | 359 kts | 226° |
| 2026-04-27 16:33 | 37.84904 | -3.03228 | 20026 ft | 359 kts | 226° |
| 2026-04-27 16:33 | 37.83173 | -3.05508 | 20023 ft | 359 kts | 226° |
| 2026-04-27 16:33 | 37.81439 | -3.07793 | 20021 ft | 359 kts | 226° |
| 2026-04-27 16:34 | 37.79712 | -3.10066 | 20013 ft | 359 kts | 226° |
| 2026-04-27 16:34 | 37.77985 | -3.12338 | 20010 ft | 359 kts | 226° |
| 2026-04-27 16:34 | 37.76256 | -3.14611 | 20006 ft | 359 kts | 226° |
| 2026-04-27 16:34 | 37.74521 | -3.16890 | 20009 ft | 358 kts | 226° |
| 2026-04-27 16:35 | 37.72796 | -3.19166 | 20007 ft | 358 kts | 226° |
| 2026-04-27 16:35 | 37.71077 | -3.21444 | 20008 ft | 358 kts | 226° |
| 2026-04-27 16:35 | 37.67654 | -3.25960 | 20005 ft | 358 kts | 226° |
| 2026-04-27 16:36 | 37.65925 | -3.28229 | 20001 ft | 358 kts | 226° |
| 2026-04-27 16:36 | 37.64195 | -3.30497 | 20002 ft | 358 kts | 226° |
| 2026-04-27 16:36 | 37.62467 | -3.32757 | 20001 ft | 358 kts | 226° |
| 2026-04-27 16:36 | 37.60734 | -3.35021 | 20004 ft | 358 kts | 226° |
| 2026-04-27 16:37 | 37.58999 | -3.37285 | 20007 ft | 358 kts | 226° |
| 2026-04-27 16:37 | 37.57266 | -3.39546 | 20010 ft | 358 kts | 226° |
| 2026-04-27 16:37 | 37.55542 | -3.41792 | 20007 ft | 358 kts | 226° |
| 2026-04-27 16:37 | 37.53804 | -3.44054 | 20007 ft | 358 kts | 226° |
| 2026-04-27 16:38 | 37.52070 | -3.46310 | 20004 ft | 358 kts | 226° |
| 2026-04-27 16:38 | 37.50340 | -3.48559 | 20010 ft | 358 kts | 226° |
| 2026-04-27 16:38 | 37.48604 | -3.50813 | 20010 ft | 358 kts | 226° |
| 2026-04-27 16:38 | 37.46868 | -3.53067 | 20005 ft | 358 kts | 226° |
| 2026-04-27 16:39 | 37.45141 | -3.55307 | 20010 ft | 358 kts | 226° |
| 2026-04-27 16:39 | 37.43407 | -3.57555 | 20012 ft | 357 kts | 226° |
| 2026-04-27 16:39 | 37.41697 | -3.59769 | 20006 ft | 357 kts | 226° |
| 2026-04-27 16:39 | 37.39967 | -3.62020 | 20006 ft | 357 kts | 227° |
| 2026-04-27 16:40 | 37.38172 | -3.64185 | 19993 ft | 357 kts | 214° |
| 2026-04-27 16:40 | 37.35972 | -3.65609 | 19998 ft | 357 kts | 204° |
| 2026-04-27 16:40 | 37.33681 | -3.66816 | 20001 ft | 357 kts | 202° |
| 2026-04-27 16:40 | 37.31393 | -3.68040 | 19994 ft | 357 kts | 204° |
| 2026-04-27 16:41 | 37.29123 | -3.69323 | 19995 ft | 357 kts | 205° |
| 2026-04-27 16:41 | 37.26874 | -3.70647 | 19996 ft | 357 kts | 206° |
| 2026-04-27 16:41 | 37.24635 | -3.71997 | 19995 ft | 356 kts | 206° |
| 2026-04-27 16:41 | 37.22407 | -3.73358 | 19990 ft | 357 kts | 206° |
| 2026-04-27 16:42 | 37.20173 | -3.74733 | 19992 ft | 356 kts | 206° |
| 2026-04-27 16:42 | 37.17946 | -3.76107 | 19992 ft | 356 kts | 206° |
| 2026-04-27 16:42 | 37.15749 | -3.77466 | 19997 ft | 356 kts | 206° |
| 2026-04-27 16:42 | 37.13508 | -3.78852 | 19995 ft | 356 kts | 206° |
| 2026-04-27 16:43 | 37.11312 | -3.80210 | 19992 ft | 356 kts | 206° |
| 2026-04-27 16:43 | 37.09085 | -3.81586 | 19994 ft | 356 kts | 206° |
| 2026-04-27 16:43 | 37.06863 | -3.82959 | 19997 ft | 356 kts | 206° |
| 2026-04-27 16:43 | 37.04650 | -3.84325 | 20003 ft | 355 kts | 206° |
| 2026-04-27 16:44 | 37.02423 | -3.85700 | 20006 ft | 356 kts | 206° |
| 2026-04-27 16:44 | 37.00203 | -3.87069 | 20011 ft | 356 kts | 206° |
| 2026-04-27 16:44 | 36.97983 | -3.88437 | 20019 ft | 356 kts | 206° |
| 2026-04-27 16:44 | 36.95757 | -3.89808 | 20023 ft | 356 kts | 206° |
| 2026-04-27 16:45 | 36.93521 | -3.91184 | 19689 ft | 361 kts | 206° |
| 2026-04-27 16:45 | 36.91245 | -3.92582 | 18926 ft | 370 kts | 206° |
| 2026-04-27 16:45 | 36.88907 | -3.94013 | 18046 ft | 378 kts | 206° |
| 2026-04-27 16:45 | 36.86518 | -3.95471 | 16920 ft | 385 kts | 206° |
| 2026-04-27 16:46 | 36.84092 | -3.96948 | 15703 ft | 393 kts | 206° |
| 2026-04-27 16:46 | 36.81612 | -3.98454 | 14384 ft | 397 kts | 206° |
| 2026-04-27 16:46 | 36.79150 | -3.99948 | 12841 ft | 398 kts | 205° |
| 2026-04-27 16:46 | 36.76674 | -4.01450 | 11415 ft | 390 kts | 205° |
| 2026-04-27 16:47 | 36.74296 | -4.02901 | 10596 ft | 368 kts | 205° |
| 2026-04-27 16:47 | 36.72080 | -4.04248 | 10184 ft | 340 kts | 205° |
| 2026-04-27 16:47 | 36.70220 | -4.05859 | 10070 ft | 323 kts | 228° |
| 2026-04-27 16:47 | 36.69199 | -4.08302 | 10057 ft | 319 kts | 257° |
| 2026-04-27 16:48 | 36.69236 | -4.11028 | 10057 ft | 314 kts | 284° |
| 2026-04-27 16:48 | 36.69839 | -4.13625 | 10053 ft | 311 kts | 287° |
| 2026-04-27 16:48 | 36.70354 | -4.16224 | 10059 ft | 308 kts | 283° |
| 2026-04-27 16:49 | 36.72344 | -4.20793 | 10056 ft | 302 kts | 309° |
| 2026-04-27 16:49 | 36.73665 | -4.22836 | 10057 ft | 300 kts | 309° |
| 2026-04-27 16:49 | 36.74941 | -4.24868 | 10055 ft | 299 kts | 308° |
| 2026-04-27 16:49 | 36.76175 | -4.26924 | 10053 ft | 298 kts | 307° |
| 2026-04-27 16:50 | 36.77403 | -4.29042 | 10053 ft | 297 kts | 307° |
| 2026-04-27 16:50 | 36.78594 | -4.31140 | 10056 ft | 297 kts | 306° |
| 2026-04-27 16:50 | 36.79776 | -4.33245 | 10052 ft | 296 kts | 306° |
| 2026-04-27 16:50 | 36.80954 | -4.35358 | 10051 ft | 296 kts | 306° |
| 2026-04-27 16:51 | 36.82124 | -4.37467 | 10050 ft | 295 kts | 306° |
| 2026-04-27 16:51 | 36.83292 | -4.39574 | 10052 ft | 295 kts | 306° |
| 2026-04-27 16:51 | 36.84225 | -4.41853 | 10051 ft | 296 kts | 285° |
| 2026-04-27 16:51 | 36.84701 | -4.44343 | 10050 ft | 295 kts | 290° |
| 2026-04-27 16:52 | 36.85663 | -4.46546 | 10054 ft | 294 kts | 307° |
| 2026-04-27 16:52 | 36.86916 | -4.48548 | 10051 ft | 293 kts | 310° |
| 2026-04-27 16:52 | 36.88214 | -4.50515 | 10048 ft | 293 kts | 311° |
| 2026-04-27 16:52 | 36.89516 | -4.52473 | 10049 ft | 292 kts | 311° |
| 2026-04-27 16:53 | 36.90816 | -4.54429 | 10051 ft | 292 kts | 311° |
| 2026-04-27 16:53 | 36.92116 | -4.56387 | 10044 ft | 293 kts | 311° |
| 2026-04-27 16:53 | 36.93418 | -4.58353 | 10047 ft | 293 kts | 311° |
| 2026-04-27 16:53 | 36.94723 | -4.60320 | 9902 ft | 297 kts | 311° |
| 2026-04-27 16:54 | 36.96059 | -4.62331 | 9228 ft | 306 kts | 311° |
| 2026-04-27 16:54 | 36.97431 | -4.64401 | 8312 ft | 315 kts | 311° |
| 2026-04-27 16:54 | 36.98851 | -4.66550 | 7275 ft | 325 kts | 311° |
| 2026-04-27 16:54 | 37.00253 | -4.68814 | 6222 ft | 333 kts | 303° |
| 2026-04-27 16:55 | 37.01043 | -4.71516 | 5497 ft | 331 kts | 278° |
| 2026-04-27 16:55 | 37.00926 | -4.74292 | 5121 ft | 318 kts | 257° |
| 2026-04-27 16:55 | 37.00314 | -4.76850 | 5036 ft | 297 kts | 247° |
| 2026-04-27 16:55 | 36.99219 | -4.78892 | 5013 ft | 273 kts | 219° |
| 2026-04-27 16:56 | 36.97654 | -4.80041 | 5021 ft | 252 kts | 197° |
| 2026-04-27 16:56 | 36.96036 | -4.80702 | 5017 ft | 238 kts | 189° |
| 2026-04-27 16:56 | 36.94446 | -4.80949 | 5030 ft | 223 kts | 175° |
| 2026-04-27 16:56 | 36.92975 | -4.80637 | 5032 ft | 210 kts | 157° |
| 2026-04-27 16:57 | 36.91638 | -4.79968 | 5016 ft | 203 kts | 152° |
| 2026-04-27 16:57 | 36.90377 | -4.79241 | 5038 ft | 196 kts | 150° |
| 2026-04-27 16:57 | 36.89163 | -4.78517 | 5024 ft | 191 kts | 150° |
| 2026-04-27 16:57 | 36.87994 | -4.77818 | 5043 ft | 185 kts | 150° |
| 2026-04-27 16:58 | 36.86891 | -4.77023 | 5019 ft | 177 kts | 137° |
| 2026-04-27 16:58 | 36.86031 | -4.75983 | 5057 ft | 173 kts | 129° |
| 2026-04-27 16:58 | 36.85223 | -4.74845 | 5052 ft | 176 kts | 128° |
| 2026-04-27 16:58 | 36.84414 | -4.73680 | 5061 ft | 178 kts | 128° |
| 2026-04-27 16:59 | 36.83601 | -4.72513 | 5061 ft | 178 kts | 129° |
| 2026-04-27 16:59 | 36.82791 | -4.71356 | 5003 ft | 179 kts | 129° |
| 2026-04-27 16:59 | 36.81947 | -4.70155 | 4748 ft | 189 kts | 129° |
| 2026-04-27 16:59 | 36.81062 | -4.68898 | 4243 ft | 198 kts | 129° |
| 2026-04-27 17:00 | 36.79786 | -4.67087 | 3386 ft | 215 kts | 130° |
| 2026-04-27 17:00 | 36.78140 | -4.64748 | 2553 ft | 218 kts | 131° |
| 2026-04-27 17:00 | 36.77145 | -4.63342 | 2243 ft | 212 kts | 131° |
| 2026-04-27 17:01 | 36.76196 | -4.62004 | 2023 ft | 202 kts | 131° |
| 2026-04-27 17:01 | 36.75294 | -4.60736 | 1767 ft | 188 kts | 131° |
| 2026-04-27 17:01 | 36.74459 | -4.59575 | 1454 ft | 171 kts | 131° |
| 2026-04-27 17:01 | 36.73697 | -4.58520 | 1158 ft | 158 kts | 131° |
| 2026-04-27 17:02 | 36.72989 | -4.57537 | 907 ft | 146 kts | 131° |
| 2026-04-27 17:02 | 36.72342 | -4.56634 | 713 ft | 135 kts | 132° |
| 2026-04-27 17:02 | 36.71746 | -4.55804 | 569 ft | 123 kts | 132° |
| 2026-04-27 17:02 | 36.71173 | -4.55010 | 472 ft | 122 kts | 132° |
| 2026-04-27 17:03 | 36.70620 | -4.54240 | 371 ft | 120 kts | 131° |
| 2026-04-27 17:03 | 36.70063 | -4.53466 | 293 ft | 122 kts | 131° |
| 2026-04-27 17:03 | 36.69489 | -4.52666 | 228 ft | 125 kts | 131° |
| 2026-04-27 17:03 | 36.68901 | -4.51831 | 270 ft | 117 kts | 130° |
| 2026-04-27 17:04 | 36.68233 | -4.51877 | 541 ft | 134 kts | 236° |
| 2026-04-27 17:04 | 36.67789 | -4.52984 | 1745 ft | 165 kts | 235° |
| 2026-04-27 17:04 | 36.67279 | -4.54356 | 3105 ft | 182 kts | 244° |
| 2026-04-27 17:04 | 36.66598 | -4.55609 | 4379 ft | 181 kts | 222° |
| 2026-04-27 17:05 | 36.65605 | -4.56725 | 5548 ft | 200 kts | 211° |
| 2026-04-27 17:05 | 36.64339 | -4.57569 | 6657 ft | 225 kts | 191° |
| 2026-04-27 17:05 | 36.62655 | -4.58018 | 7338 ft | 272 kts | 194° |
| 2026-04-27 17:05 | 36.61439 | -4.58677 | 8098 ft | 292 kts | 207° |
| 2026-04-27 17:06 | 36.59061 | -4.60649 | 9678 ft | 332 kts | 213° |
| 2026-04-27 17:06 | 36.57754 | -4.61807 | 10355 ft | 349 kts | 213° |
| 2026-04-27 17:06 | 36.55286 | -4.64591 | 11933 ft | 375 kts | 229° |
| 2026-04-27 17:06 | 36.53816 | -4.67082 | 12646 ft | 339 kts | 234° |
| 2026-04-27 17:07 | 36.52943 | -4.68690 | 12706 ft | 328 kts | 235° |
| 2026-04-27 17:07 | 36.51677 | -4.71056 | 12326 ft | 329 kts | 235° |
| 2026-04-27 17:07 | 36.50448 | -4.73361 | 12109 ft | 320 kts | 235° |
| 2026-04-27 17:07 | 36.49222 | -4.75664 | 11934 ft | 311 kts | 235° |
| 2026-04-27 17:08 | 36.48059 | -4.77849 | 11767 ft | 303 kts | 235° |
| 2026-04-27 17:08 | 36.46905 | -4.80020 | 11576 ft | 297 kts | 235° |
| 2026-04-27 17:08 | 36.45958 | -4.82275 | 11400 ft | 293 kts | 252° |
| 2026-04-27 17:08 | 36.45813 | -4.84758 | 11224 ft | 290 kts | 279° |
| 2026-04-27 17:09 | 36.46469 | -4.87111 | 11057 ft | 286 kts | 297° |
| 2026-04-27 17:09 | 36.47473 | -4.89217 | 10890 ft | 283 kts | 304° |
| 2026-04-27 17:09 | 36.48566 | -4.91235 | 10717 ft | 280 kts | 305° |
| 2026-04-27 17:09 | 36.49661 | -4.93230 | 10543 ft | 278 kts | 305° |
| 2026-04-27 17:10 | 36.50746 | -4.95206 | 10389 ft | 277 kts | 305° |
| 2026-04-27 17:10 | 36.51829 | -4.97184 | 10218 ft | 276 kts | 305° |
| 2026-04-27 17:10 | 36.52908 | -4.99154 | 10056 ft | 276 kts | 305° |
| 2026-04-27 17:10 | 36.53990 | -5.01125 | 9870 ft | 275 kts | 306° |
| 2026-04-27 17:11 | 36.55103 | -5.03054 | 9645 ft | 275 kts | 307° |
| 2026-04-27 17:11 | 36.57376 | -5.06847 | 9162 ft | 274 kts | 308° |
| 2026-04-27 17:11 | 36.58540 | -5.08714 | 8942 ft | 272 kts | 310° |
| 2026-04-27 17:12 | 36.60935 | -5.12364 | 8484 ft | 273 kts | 310° |
| 2026-04-27 17:12 | 36.62073 | -5.14260 | 8250 ft | 272 kts | 304° |
| 2026-04-27 17:12 | 36.63314 | -5.16001 | 8021 ft | 267 kts | 330° |
| 2026-04-27 17:13 | 36.65041 | -5.16638 | 7813 ft | 257 kts | 7° |
| 2026-04-27 17:13 | 36.66689 | -5.15988 | 7574 ft | 248 kts | 37° |
| 2026-04-27 17:13 | 36.67896 | -5.14507 | 7322 ft | 242 kts | 59° |
| 2026-04-27 17:13 | 36.68773 | -5.12744 | 7237 ft | 235 kts | 63° |
| 2026-04-27 17:14 | 36.69667 | -5.11091 | 7165 ft | 233 kts | 55° |
| 2026-04-27 17:14 | 36.70729 | -5.09580 | 7083 ft | 229 kts | 51° |
| 2026-04-27 17:14 | 36.71840 | -5.08199 | 6990 ft | 221 kts | 48° |
| 2026-04-27 17:14 | 36.72944 | -5.06907 | 6915 ft | 214 kts | 48° |
| 2026-04-27 17:15 | 36.74036 | -5.05672 | 6846 ft | 208 kts | 48° |
| 2026-04-27 17:15 | 36.75094 | -5.04481 | 6777 ft | 204 kts | 46° |
| 2026-04-27 17:15 | 36.76338 | -5.03592 | 6709 ft | 212 kts | 25° |
| 2026-04-27 17:15 | 36.77763 | -5.03066 | 6639 ft | 215 kts | 20° |
| 2026-04-27 17:16 | 36.79218 | -5.02627 | 6570 ft | 215 kts | 19° |
| 2026-04-27 17:16 | 36.80663 | -5.02202 | 6484 ft | 211 kts | 19° |
| 2026-04-27 17:16 | 36.81993 | -5.01597 | 6400 ft | 202 kts | 34° |
| 2026-04-27 17:16 | 36.83151 | -5.00597 | 6340 ft | 198 kts | 43° |
| 2026-04-27 17:17 | 36.84200 | -4.99527 | 6258 ft | 194 kts | 45° |
| 2026-04-27 17:17 | 36.85232 | -4.98455 | 6181 ft | 192 kts | 45° |
| 2026-04-27 17:17 | 36.86145 | -4.97275 | 6111 ft | 187 kts | 62° |
| 2026-04-27 17:18 | 36.87034 | -4.94311 | 5977 ft | 185 kts | 77° |
| 2026-04-27 17:18 | 36.87367 | -4.92720 | 5897 ft | 187 kts | 78° |
| 2026-04-27 17:18 | 36.87685 | -4.91147 | 5834 ft | 187 kts | 78° |
| 2026-04-27 17:18 | 36.88001 | -4.89568 | 5775 ft | 191 kts | 78° |
| 2026-04-27 17:19 | 36.88331 | -4.87920 | 5691 ft | 194 kts | 78° |
| 2026-04-27 17:19 | 36.88599 | -4.86282 | 5613 ft | 195 kts | 86° |
| 2026-04-27 17:19 | 36.88553 | -4.84580 | 5544 ft | 194 kts | 99° |
| 2026-04-27 17:19 | 36.88281 | -4.82952 | 5464 ft | 193 kts | 104° |
| 2026-04-27 17:20 | 36.87936 | -4.81337 | 5448 ft | 191 kts | 106° |
| 2026-04-27 17:20 | 36.87575 | -4.79758 | 5448 ft | 188 kts | 107° |
| 2026-04-27 17:20 | 36.87149 | -4.78225 | 5445 ft | 185 kts | 115° |
| 2026-04-27 17:20 | 36.86492 | -4.76891 | 5453 ft | 176 kts | 125° |
| 2026-04-27 17:21 | 36.85732 | -4.75744 | 5455 ft | 169 kts | 129° |
| 2026-04-27 17:21 | 36.84954 | -4.74636 | 5313 ft | 172 kts | 129° |
| 2026-04-27 17:21 | 36.84149 | -4.73487 | 5068 ft | 181 kts | 130° |
| 2026-04-27 17:21 | 36.83304 | -4.72282 | 4757 ft | 185 kts | 130° |
| 2026-04-27 17:22 | 36.82453 | -4.71074 | 4456 ft | 187 kts | 130° |
| 2026-04-27 17:22 | 36.81591 | -4.69851 | 4176 ft | 186 kts | 130° |
| 2026-04-27 17:22 | 36.80736 | -4.68643 | 3873 ft | 185 kts | 130° |
| 2026-04-27 17:22 | 36.79911 | -4.67474 | 3627 ft | 179 kts | 131° |
| 2026-04-27 17:23 | 36.79097 | -4.66317 | 3392 ft | 173 kts | 131° |
| 2026-04-27 17:23 | 36.78328 | -4.65229 | 3156 ft | 161 kts | 130° |
| 2026-04-27 17:23 | 36.77604 | -4.64206 | 2929 ft | 154 kts | 130° |
| 2026-04-27 17:23 | 36.76906 | -4.63218 | 2725 ft | 148 kts | 131° |
| 2026-04-27 17:24 | 36.76236 | -4.62271 | 2509 ft | 144 kts | 130° |
| 2026-04-27 17:24 | 36.75587 | -4.61353 | 2316 ft | 139 kts | 130° |
| 2026-04-27 17:24 | 36.74958 | -4.60467 | 2116 ft | 132 kts | 131° |
| 2026-04-27 17:24 | 36.74367 | -4.59636 | 1933 ft | 124 kts | 130° |
| 2026-04-27 17:25 | 36.73811 | -4.58850 | 1764 ft | 117 kts | 130° |
| 2026-04-27 17:25 | 36.73291 | -4.58116 | 1616 ft | 109 kts | 130° |
| 2026-04-27 17:25 | 36.72802 | -4.57424 | 1435 ft | 104 kts | 130° |
| 2026-04-27 17:25 | 36.72369 | -4.56581 | 2088 ft | 133 kts | 115° |
| 2026-04-27 17:26 | 36.71840 | -4.55170 | 2536 ft | 208 kts | 118° |
| 2026-04-27 17:26 | 36.71114 | -4.53607 | 3676 ft | 217 kts | 120° |
| 2026-04-27 17:26 | 36.70318 | -4.51813 | 4394 ft | 252 kts | 118° |
| 2026-04-27 17:26 | 36.69411 | -4.49761 | 4921 ft | 302 kts | 118° |
| 2026-04-27 17:27 | 36.68402 | -4.47526 | 4985 ft | 280 kts | 118° |
| 2026-04-27 17:27 | 36.67489 | -4.45514 | 4983 ft | 253 kts | 118° |
| 2026-04-27 17:27 | 36.66657 | -4.43682 | 4983 ft | 230 kts | 118° |
| 2026-04-27 17:27 | 36.65903 | -4.42025 | 4980 ft | 211 kts | 118° |
| 2026-04-27 17:28 | 36.65213 | -4.40503 | 4979 ft | 194 kts | 118° |
| 2026-04-27 17:28 | 36.64590 | -4.39082 | 4923 ft | 182 kts | 117° |
| 2026-04-27 17:28 | 36.63325 | -4.36187 | 4052 ft | 197 kts | 117° |
| 2026-04-27 17:29 | 36.62555 | -4.34752 | 3615 ft | 204 kts | 130° |
| 2026-04-27 17:29 | 36.61383 | -4.33704 | 3172 ft | 214 kts | 156° |
| 2026-04-27 17:29 | 36.59895 | -4.33346 | 2731 ft | 222 kts | 171° |
| 2026-04-27 17:29 | 36.58331 | -4.33424 | 2278 ft | 232 kts | 195° |
| 2026-04-27 17:30 | 36.57074 | -4.34638 | 2020 ft | 233 kts | 237° |
| 2026-04-27 17:30 | 36.57484 | -4.38008 | 1967 ft | 188 kts | 326° |
| 2026-04-27 17:30 | 36.58527 | -4.38844 | 1995 ft | 172 kts | 333° |
| 2026-04-27 17:31 | 36.59514 | -4.39617 | 1927 ft | 168 kts | 330° |
| 2026-04-27 17:31 | 36.60436 | -4.40482 | 1582 ft | 166 kts | 323° |
| 2026-04-27 17:31 | 36.61296 | -4.41436 | 1210 ft | 164 kts | 319° |
| 2026-04-27 17:31 | 36.62091 | -4.42416 | 927 ft | 157 kts | 316° |
| 2026-04-27 17:32 | 36.62826 | -4.43376 | 710 ft | 149 kts | 314° |
| 2026-04-27 17:32 | 36.64176 | -4.45212 | 508 ft | 143 kts | 311° |
| 2026-04-27 17:32 | 36.64845 | -4.46138 | 424 ft | 144 kts | 311° |
| 2026-04-27 17:33 | 36.65515 | -4.47072 | 301 ft | 145 kts | 311° |
| 2026-04-27 17:33 | 36.66187 | -4.48006 | 174 ft | 145 kts | 311° |
| 2026-04-27 17:33 | 36.66786 | -4.48926 | 126 ft | 115 kts | 283° |